createdAt,value
2022-10-26T00:01:02.734Z,99264.86
2022-10-26T00:03:29.807Z,99267.08
2022-10-26T00:06:02.943Z,99270.46
2022-10-26T00:08:29.652Z,99273.96
2022-10-26T00:10:57.334Z,99273.91
2022-10-26T00:13:24.014Z,99274.84
2022-10-26T00:15:50.695Z,99274.79
2022-10-26T00:18:17.441Z,99278.88
2022-10-26T00:20:44.055Z,99281.55
2022-10-26T00:23:10.743Z,99287.00
2022-10-26T00:25:37.464Z,99286.89
2022-10-26T00:28:04.247Z,99284.88
2022-10-26T00:30:30.964Z,99282.38
2022-10-26T00:32:57.582Z,99282.86
2022-10-26T00:35:44.532Z,99283.79
2022-10-26T00:38:11.071Z,99287.13
2022-10-26T00:40:37.687Z,99284.02
2022-10-26T00:43:06.017Z,99287.09
2022-10-26T00:45:32.834Z,99290.70
2022-10-26T00:48:01.860Z,99289.88
2022-10-26T00:50:41.016Z,99290.97
2022-10-26T00:53:07.715Z,99287.64
2022-10-26T00:55:35.144Z,99287.42
2022-10-26T00:58:02.622Z,99288.73
2022-10-26T01:00:29.346Z,99288.84
2022-10-26T01:02:55.941Z,99289.39
2022-10-26T01:05:22.629Z,99288.13
2022-10-26T01:07:49.496Z,99290.20
2022-10-26T01:12:01.271Z,99288.68
2022-10-26T01:14:28.035Z,99294.85
2022-10-26T01:17:00.918Z,99297.47
2022-10-26T01:20:05.753Z,99294.74
2022-10-26T01:22:50.826Z,99290.97
2022-10-26T01:25:40.051Z,99296.27
2022-10-26T01:28:13.352Z,99291.48
2022-10-26T01:30:40.410Z,99295.78
2022-10-26T01:33:22.473Z,99290.98
2022-10-26T01:36:00.437Z,99290.70
2022-10-26T01:38:46.118Z,99290.81
2022-10-26T01:41:32.304Z,99291.55
2022-10-26T01:44:01.559Z,99293.03
2022-10-26T01:46:30.171Z,99289.48
2022-10-26T01:48:59.430Z,99288.83
2022-10-26T01:51:26.482Z,99288.34
2022-10-26T01:53:53.314Z,99294.78
2022-10-26T01:56:22.107Z,99294.89
2022-10-26T01:59:18.065Z,99296.36
2022-10-26T02:02:31.591Z,99300.95
2022-10-26T02:05:17.679Z,99300.14
2022-10-26T02:07:44.343Z,99301.17
2022-10-26T02:10:22.943Z,99303.89
2022-10-26T02:12:55.753Z,99304.83
2022-10-26T02:15:26.783Z,99308.16
2022-10-26T02:17:57.601Z,99307.56
2022-10-26T02:20:27.187Z,99309.09
2022-10-26T02:22:54.041Z,99312.27
2022-10-26T02:25:23.798Z,99308.77
2022-10-26T02:27:52.676Z,99306.95
2022-10-26T02:30:19.513Z,99309.13
2022-10-26T02:32:48.667Z,99311.60
2022-10-26T02:35:15.736Z,99308.88
2022-10-26T02:37:42.497Z,99313.73
2022-10-26T02:40:12.122Z,99313.80
2022-10-26T02:42:40.251Z,99315.45
2022-10-26T02:45:09.206Z,99312.55
2022-10-26T02:47:35.964Z,99313.16
2022-10-26T02:50:02.670Z,99313.66
2022-10-26T02:52:38.505Z,99314.30
2022-10-26T02:55:07.563Z,99313.05
2022-10-26T02:57:45.051Z,99311.63
2022-10-26T03:00:14.020Z,99316.94
2022-10-26T03:02:47.654Z,99320.37
2022-10-26T03:05:21.039Z,99321.84
2022-10-26T03:07:47.724Z,99326.21
2022-10-26T03:10:14.357Z,99328.06
2022-10-26T03:12:41.054Z,99329.97
2022-10-26T03:15:07.992Z,99332.80
2022-10-26T03:17:34.720Z,99324.98
2022-10-26T03:20:01.592Z,99325.35
2022-10-26T03:22:28.278Z,99326.28
2022-10-26T03:24:55.008Z,99326.72
2022-10-26T03:27:22.041Z,99329.02
2022-10-26T03:29:48.835Z,99323.98
2022-10-26T03:32:15.537Z,99328.19
2022-10-26T03:34:42.166Z,99328.42
2022-10-26T03:37:08.835Z,99325.26
2022-10-26T03:39:35.454Z,99326.30
2022-10-26T03:42:02.212Z,99326.30
2022-10-26T03:44:28.850Z,99327.55
2022-10-26T03:46:55.557Z,99326.14
2022-10-26T03:49:22.228Z,99328.81
2022-10-26T03:51:48.922Z,99328.38
2022-10-26T03:54:15.593Z,99327.30
2022-10-26T03:56:42.480Z,99327.78
2022-10-26T03:59:09.114Z,99329.27
2022-10-26T04:01:35.933Z,99329.15
2022-10-26T04:04:02.750Z,99330.24
2022-10-26T04:06:29.506Z,99329.80
2022-10-26T04:09:01.930Z,99328.66
2022-10-26T04:11:29.433Z,99324.14
2022-10-26T04:13:56.352Z,99321.63
2022-10-26T04:16:23.257Z,99321.67
2022-10-26T04:18:49.862Z,99321.73
2022-10-26T04:21:16.551Z,99322.76
2022-10-26T04:23:43.219Z,99325.77
2022-10-26T04:26:09.931Z,99321.93
2022-10-26T04:28:36.536Z,99319.05
2022-10-26T04:31:03.282Z,99318.71
2022-10-26T04:33:30.052Z,99316.05
2022-10-26T04:36:01.151Z,99316.44
2022-10-26T04:38:27.858Z,99316.27
2022-10-26T04:40:54.503Z,99311.45
2022-10-26T04:43:21.194Z,99315.39
2022-10-26T04:45:47.775Z,99316.15
2022-10-26T04:48:14.564Z,99317.25
2022-10-26T04:50:41.395Z,99318.02
2022-10-26T04:53:09.274Z,99322.48
2022-10-26T04:55:36.076Z,99321.79
2022-10-26T04:58:03.063Z,99323.48
2022-10-26T05:00:31.055Z,99323.48
2022-10-26T05:03:01.953Z,99314.73
2022-10-26T05:05:29.439Z,99318.45
2022-10-26T05:07:56.859Z,99318.66
2022-10-26T05:10:24.114Z,99325.33
2022-10-26T05:12:54.488Z,99325.55
2022-10-26T05:15:21.638Z,99329.16
2022-10-26T05:17:57.388Z,99330.47
2022-10-26T05:20:29.726Z,99332.44
2022-10-26T05:23:01.775Z,99334.96
2022-10-26T05:25:29.347Z,99334.14
2022-10-26T05:27:59.870Z,99338.84
2022-10-26T05:30:27.116Z,99340.21
2022-10-26T05:32:57.417Z,99341.63
2022-10-26T05:35:24.352Z,99343.05
2022-10-26T05:37:51.064Z,99345.95
2022-10-26T05:40:17.883Z,99346.15
2022-10-26T05:42:45.112Z,99343.54
2022-10-26T05:45:12.208Z,99346.32
2022-10-26T05:47:39.772Z,99345.83
2022-10-26T05:50:06.729Z,99343.87
2022-10-26T05:52:46.999Z,99342.83
2022-10-26T05:55:15.026Z,99345.34
2022-10-26T05:57:42.112Z,99343.81
2022-10-26T06:00:11.079Z,99346.60
2022-10-26T06:02:46.631Z,99352.27
2022-10-26T06:05:17.987Z,99348.99
2022-10-26T06:07:44.909Z,99351.89
2022-10-26T06:10:12.250Z,99348.79
2022-10-26T06:12:39.142Z,99349.02
2022-10-26T06:15:06.582Z,99352.71
2022-10-26T06:17:59.203Z,99352.34
2022-10-26T06:20:47.986Z,99350.70
2022-10-26T06:23:36.614Z,99352.72
2022-10-26T06:26:09.226Z,99352.98
2022-10-26T06:28:54.680Z,99355.38
2022-10-26T06:31:21.432Z,99361.78
2022-10-26T06:33:48.067Z,99362.49
2022-10-26T06:36:22.286Z,99362.73
2022-10-26T06:38:51.145Z,99366.34
2022-10-26T06:41:19.366Z,99367.23
2022-10-26T06:43:46.516Z,99369.83
2022-10-26T06:46:34.701Z,99369.99
2022-10-26T06:49:21.025Z,99370.11
2022-10-26T06:51:58.806Z,99375.27
2022-10-26T06:54:51.411Z,99378.10
2022-10-26T06:57:19.650Z,99377.44
2022-10-26T06:59:50.784Z,99381.16
2022-10-26T07:02:17.976Z,99385.85
2022-10-26T07:04:44.786Z,99386.83
2022-10-26T07:07:12.553Z,99385.59
2022-10-26T07:09:39.266Z,99389.21
2022-10-26T07:12:06.104Z,99386.86
2022-10-26T07:14:32.960Z,99387.72
2022-10-26T07:16:59.715Z,99390.61
2022-10-26T07:19:26.610Z,99392.95
2022-10-26T07:21:56.883Z,99386.30
2022-10-26T07:24:23.914Z,99391.61
2022-10-26T07:26:50.834Z,99402.77
2022-10-26T07:29:18.296Z,99400.96
2022-10-26T07:31:45.028Z,99403.46
2022-10-26T07:34:11.781Z,99408.33
2022-10-26T07:36:39.489Z,99412.38
2022-10-26T07:39:06.933Z,99412.48
2022-10-26T07:41:33.716Z,99415.83
2022-10-26T07:44:00.602Z,99414.14
2022-10-26T07:46:27.497Z,99417.25
2022-10-26T07:48:54.356Z,99413.95
2022-10-26T07:51:21.200Z,99411.60
2022-10-26T07:53:48.398Z,99415.86
2022-10-26T07:56:15.375Z,99417.30
2022-10-26T07:58:42.099Z,99416.80
2022-10-26T08:01:11.226Z,99422.45
2022-10-26T08:03:38.191Z,99417.24
2022-10-26T08:06:05.137Z,99423.77
2022-10-26T08:08:32.266Z,99429.23
2022-10-26T08:10:59.212Z,99431.68
2022-10-26T08:13:25.948Z,99430.59
2022-10-26T08:15:59.599Z,99429.61
2022-10-26T08:18:26.506Z,99438.25
2022-10-26T08:20:54.558Z,99439.10
2022-10-26T08:23:23.039Z,99434.89
2022-10-26T08:25:49.782Z,99439.83
2022-10-26T08:28:16.589Z,99438.85
2022-10-26T08:30:43.319Z,99440.63
2022-10-26T08:33:10.106Z,99435.65
2022-10-26T08:35:36.911Z,99438.98
2022-10-26T08:38:03.640Z,99436.75
2022-10-26T08:40:32.115Z,99438.06
2022-10-26T08:43:35.175Z,99444.14
2022-10-26T08:46:05.629Z,99443.48
2022-10-26T08:48:34.447Z,99449.21
2022-10-26T08:51:03.443Z,99450.91
2022-10-26T08:53:34.639Z,99451.30
2022-10-26T08:56:19.038Z,99454.22
2022-10-26T08:58:57.046Z,99450.89
2022-10-26T09:01:24.009Z,99461.88
2022-10-26T09:03:51.002Z,99458.77
2022-10-26T09:06:25.170Z,99461.99
2022-10-26T09:09:02.622Z,99464.57
2022-10-26T09:11:55.959Z,99467.74
2022-10-26T09:14:54.764Z,99470.05
2022-10-26T09:17:40.010Z,99475.56
2022-10-26T09:20:26.873Z,99476.10
2022-10-26T09:23:07.356Z,99478.62
2022-10-26T09:25:44.604Z,99480.92
2022-10-26T09:28:15.708Z,99480.10
2022-10-26T09:30:44.551Z,99478.95
2022-10-26T09:33:16.389Z,99483.01
2022-10-26T09:35:52.313Z,99482.36
2022-10-26T09:38:32.834Z,99479.45
2022-10-26T09:41:25.113Z,99480.64
2022-10-26T09:44:07.564Z,99478.02
2022-10-26T09:46:46.698Z,99477.11
2022-10-26T09:49:13.802Z,99479.45
2022-10-26T09:51:43.012Z,99478.31
2022-10-26T09:54:17.532Z,99479.46
2022-10-26T09:56:55.846Z,99477.70
2022-10-26T09:59:23.478Z,99476.34
2022-10-26T10:01:50.278Z,99476.44
2022-10-26T10:04:26.110Z,99479.08
2022-10-26T10:07:12.438Z,99478.55
2022-10-26T10:09:39.158Z,99476.80
2022-10-26T10:12:06.046Z,99474.59
2022-10-26T10:14:39.917Z,99472.71
2022-10-26T10:17:11.186Z,99471.34
2022-10-26T10:19:38.363Z,99471.56
2022-10-26T10:22:08.082Z,99472.55
2022-10-26T10:24:36.911Z,99471.30
2022-10-26T10:27:24.005Z,99474.20
2022-10-26T10:29:52.294Z,99473.06
2022-10-26T10:32:35.788Z,99473.92
2022-10-26T10:35:24.352Z,99470.73
2022-10-26T10:37:51.086Z,99468.34
2022-10-26T10:40:22.084Z,99469.52
2022-10-26T10:42:49.167Z,99471.04
2022-10-26T10:45:27.799Z,99477.09
2022-10-26T10:48:13.046Z,99475.78
2022-10-26T10:50:59.277Z,99476.33
2022-10-26T10:53:29.045Z,99482.24
2022-10-26T10:56:10.640Z,99484.88
2022-10-26T10:58:50.622Z,99487.13
2022-10-26T11:01:21.442Z,99488.61
2022-10-26T11:03:54.525Z,99487.13
2022-10-26T11:06:24.790Z,99490.90
2022-10-26T11:09:00.442Z,99485.31
2022-10-26T11:11:40.562Z,99488.98
2022-10-26T11:14:26.465Z,99487.23
2022-10-26T11:16:56.182Z,99483.39
2022-10-26T11:19:29.218Z,99484.48
2022-10-26T11:21:56.095Z,99480.61
2022-10-26T11:24:35.830Z,99480.73
2022-10-26T11:27:26.929Z,99481.34
2022-10-26T11:30:27.566Z,99480.92
2022-10-26T11:33:01.023Z,99479.95
2022-10-26T11:35:31.472Z,99479.95
2022-10-26T11:38:01.615Z,99480.65
2022-10-26T11:40:33.855Z,99476.79
2022-10-26T11:43:15.187Z,99476.77
2022-10-26T11:45:43.994Z,99478.23
2022-10-26T11:48:22.958Z,99475.79
2022-10-26T11:50:51.273Z,99481.30
2022-10-26T11:53:19.511Z,99481.45
2022-10-26T11:55:51.652Z,99483.39
2022-10-26T11:58:18.402Z,99484.42
2022-10-26T12:00:49.510Z,99484.08
2022-10-26T12:03:18.638Z,99478.04
2022-10-26T12:05:51.993Z,99481.58
2022-10-26T12:08:25.269Z,99485.60
2022-10-26T12:11:11.845Z,99487.95
2022-10-26T12:13:42.599Z,99489.27
2022-10-26T12:16:33.143Z,99489.44
2022-10-26T12:19:02.787Z,99489.27
2022-10-26T12:21:30.686Z,99492.08
2022-10-26T12:23:59.171Z,99497.05
2022-10-26T12:26:25.927Z,99499.75
2022-10-26T12:29:01.778Z,99501.88
2022-10-26T12:31:37.659Z,99506.67
2022-10-26T12:34:05.320Z,99498.52
2022-10-26T12:37:10.414Z,99500.83
2022-10-26T12:39:37.755Z,99503.79
2022-10-26T12:42:04.481Z,99502.45
2022-10-26T12:44:35.958Z,99509.30
2022-10-26T12:47:03.944Z,99507.38
2022-10-26T12:50:08.009Z,99513.21
2022-10-26T12:52:56.715Z,99511.79
2022-10-26T12:55:47.154Z,99513.33
2022-10-26T12:58:45.524Z,99519.99
2022-10-26T13:01:24.596Z,99526.14
2022-10-26T13:03:51.395Z,99532.64
2022-10-26T13:06:45.321Z,99529.39
2022-10-26T13:09:27.877Z,99531.00
2022-10-26T13:11:55.722Z,99536.81
2022-10-26T13:14:27.703Z,99538.00
2022-10-26T13:16:54.477Z,99544.20
2022-10-26T13:19:30.712Z,99542.48
2022-10-26T13:22:00.635Z,99547.52
2022-10-26T13:24:29.119Z,99545.39
2022-10-26T13:29:04.471Z,99548.82
2022-10-26T13:31:39.663Z,99547.25
2022-10-26T13:34:12.480Z,99546.80
2022-10-26T13:37:02.139Z,99547.73
2022-10-26T13:39:47.901Z,99551.30
2022-10-26T13:42:20.409Z,99552.96
2022-10-26T13:44:59.895Z,99552.59
2022-10-26T13:47:37.053Z,99556.20
2022-10-26T13:50:17.203Z,99563.11
2022-10-26T13:52:46.029Z,99561.42
2022-10-26T13:55:35.853Z,99561.80
2022-10-26T13:58:17.994Z,99561.69
2022-10-26T14:01:24.613Z,99560.92
2022-10-26T14:03:51.469Z,99573.23
2022-10-26T14:06:27.909Z,99573.02
2022-10-26T14:08:57.201Z,99579.97
2022-10-26T14:11:31.652Z,99575.31
2022-10-26T14:13:58.411Z,99584.77
2022-10-26T14:16:26.530Z,99588.28
2022-10-26T14:18:53.288Z,99595.17
2022-10-26T14:21:21.229Z,99599.58
2022-10-26T14:23:56.138Z,99604.94
2022-10-26T14:26:29.489Z,99600.59
2022-10-26T14:28:58.336Z,99606.27
2022-10-26T14:31:28.730Z,99608.02
2022-10-26T14:33:56.156Z,99610.26
2022-10-26T14:36:48.095Z,99605.70
2022-10-26T14:39:25.140Z,99614.89
2022-10-26T14:41:51.839Z,99617.89
2022-10-26T14:44:20.620Z,99616.73
2022-10-26T14:46:47.388Z,99621.31
2022-10-26T14:49:24.894Z,99625.41
2022-10-26T14:52:05.187Z,99625.20
2022-10-26T14:54:33.727Z,99618.23
2022-10-26T14:57:08.541Z,99633.34
2022-10-26T14:59:35.276Z,99639.55
2022-10-26T15:02:11.265Z,99642.99
2022-10-26T15:04:39.412Z,99644.59
2022-10-26T15:07:12.239Z,99649.66
2022-10-26T15:09:39.951Z,99646.76
2022-10-26T15:12:06.971Z,99648.11
2022-10-26T15:14:33.704Z,99652.34
2022-10-26T15:17:00.465Z,99650.75
2022-10-26T15:19:27.376Z,99655.84
2022-10-26T15:21:54.289Z,99659.21
2022-10-26T15:24:21.008Z,99654.05
2022-10-26T15:26:47.762Z,99656.72
2022-10-26T15:29:39.599Z,99667.76
2022-10-26T15:32:30.107Z,99669.24
2022-10-26T15:35:19.421Z,99681.69
2022-10-26T15:37:46.903Z,99678.89
2022-10-26T15:40:13.821Z,99689.09
2022-10-26T15:42:41.086Z,99690.62
2022-10-26T15:45:24.224Z,99690.52
2022-10-26T15:47:55.640Z,99692.90
2022-10-26T15:50:24.012Z,99695.89
2022-10-26T15:52:51.125Z,99700.33
2022-10-26T15:55:18.074Z,99703.43
2022-10-26T15:57:44.851Z,99707.06
2022-10-26T16:00:15.708Z,99714.59
2022-10-26T16:02:43.135Z,99716.12
2022-10-26T16:05:12.160Z,99718.40
2022-10-26T16:07:39.769Z,99717.77
2022-10-26T16:10:06.817Z,99726.73
2022-10-26T16:12:33.536Z,99726.14
2022-10-26T16:15:05.632Z,99728.59
2022-10-26T16:17:33.534Z,99728.21
2022-10-26T16:20:02.291Z,99727.82
2022-10-26T16:22:31.025Z,99731.02
2022-10-26T16:24:59.469Z,99737.39
2022-10-26T16:27:26.234Z,99740.82
2022-10-26T16:29:52.948Z,99740.49
2022-10-26T16:32:19.665Z,99743.01
2022-10-26T16:34:46.342Z,99745.46
2022-10-26T16:37:13.182Z,99742.45
2022-10-26T16:39:39.906Z,99743.99
2022-10-26T16:42:06.894Z,99746.18
2022-10-26T16:44:33.654Z,99742.21
2022-10-26T16:47:00.401Z,99743.22
2022-10-26T16:49:27.048Z,99740.42
2022-10-26T16:51:53.919Z,99742.92
2022-10-26T16:54:20.668Z,99744.07
2022-10-26T16:56:47.375Z,99746.04
2022-10-26T16:59:14.261Z,99749.27
2022-10-26T17:01:41.089Z,99751.94
2022-10-26T17:04:09.268Z,99752.98
2022-10-26T17:06:36.054Z,99753.62
2022-10-26T17:09:02.764Z,99758.64
2022-10-26T17:11:29.482Z,99760.04
2022-10-26T17:13:56.157Z,99758.83
2022-10-26T17:16:23.589Z,99762.42
2022-10-26T17:18:50.722Z,99764.65
2022-10-26T17:21:19.119Z,99762.84
2022-10-26T17:23:46.099Z,99756.52
2022-10-26T17:26:13.643Z,99768.48
2022-10-26T17:28:40.395Z,99771.66
2022-10-26T17:31:15.374Z,99770.30
2022-10-26T17:33:43.316Z,99771.54
2022-10-26T17:36:11.365Z,99769.29
2022-10-26T17:38:39.288Z,99772.66
2022-10-26T17:41:16.260Z,99769.43
2022-10-26T17:43:43.599Z,99769.70
2022-10-26T17:46:11.735Z,99772.15
2022-10-26T17:48:38.453Z,99776.52
2022-10-26T17:51:06.762Z,99778.98
2022-10-26T17:53:33.699Z,99780.73
2022-10-26T17:56:04.516Z,99781.88
2022-10-26T17:58:31.748Z,99785.15
2022-10-26T18:01:09.097Z,99786.13
2022-10-26T18:03:36.602Z,99789.29
2022-10-26T18:06:03.447Z,99791.04
2022-10-26T18:08:30.824Z,99795.19
2022-10-26T18:10:58.982Z,99797.70
2022-10-26T18:13:29.232Z,99799.14
2022-10-26T18:15:56.031Z,99801.80
2022-10-26T18:18:22.824Z,99799.73
2022-10-26T18:20:49.592Z,99802.48
2022-10-26T18:23:16.370Z,99804.50
2022-10-26T18:25:43.183Z,99811.16
2022-10-26T18:30:40.274Z,99816.53
2022-10-26T18:33:07.063Z,99820.00
2022-10-26T18:35:33.769Z,99822.79
2022-10-26T18:38:01.609Z,99829.05
2022-10-26T18:40:28.319Z,99833.41
2022-10-26T18:42:56.784Z,99838.19
2022-10-26T18:45:23.457Z,99837.08
2022-10-26T18:47:50.403Z,99839.30
2022-10-26T18:50:17.379Z,99838.52
2022-10-26T18:52:44.125Z,99842.67
2022-10-26T18:55:13.260Z,99837.98
2022-10-26T18:57:43.351Z,99845.16
2022-10-26T19:00:10.778Z,99848.48
2022-10-26T19:02:38.360Z,99850.84
2022-10-26T19:05:07.116Z,99853.67
2022-10-26T19:07:33.999Z,99857.80
2022-10-26T19:10:00.934Z,99855.33
2022-10-26T19:12:31.846Z,99865.02
2022-10-26T19:14:59.059Z,99865.44
2022-10-26T19:17:26.127Z,99866.45
2022-10-26T19:19:54.531Z,99869.94
2022-10-26T19:22:21.332Z,99873.46
2022-10-26T19:24:49.111Z,99872.84
2022-10-26T19:29:47.545Z,99883.61
2022-10-26T19:32:14.938Z,99884.39
2022-10-26T19:34:41.622Z,99882.55
2022-10-26T19:37:09.762Z,99886.14
2022-10-26T19:39:36.467Z,99887.89
2022-10-26T19:42:03.102Z,99889.63
2022-10-26T19:44:29.812Z,99892.14
2022-10-26T19:46:56.439Z,99892.45
2022-10-26T19:49:23.313Z,99894.14
2022-10-26T19:51:50.109Z,99900.05
2022-10-26T19:54:16.816Z,99898.02
2022-10-26T19:56:43.479Z,99901.06
2022-10-26T19:59:10.422Z,99906.79
2022-10-26T20:01:39.064Z,99906.10
2022-10-26T20:04:06.342Z,99909.38
2022-10-26T20:06:33.356Z,99911.61
2022-10-26T20:09:00.294Z,99909.74
2022-10-26T20:11:27.185Z,99911.58
2022-10-26T20:13:56.369Z,99912.44
2022-10-26T20:16:23.190Z,99913.91
2022-10-26T20:18:49.839Z,99916.25
2022-10-26T20:21:17.018Z,99917.75
2022-10-26T20:23:43.952Z,99918.35
2022-10-26T20:26:18.157Z,99920.20
2022-10-26T20:28:47.129Z,99924.55
2022-10-26T20:31:13.902Z,99924.77
2022-10-26T20:33:40.593Z,99920.63
2022-10-26T20:36:07.375Z,99925.60
2022-10-26T20:38:34.383Z,99924.55
2022-10-26T20:41:04.802Z,99924.42
2022-10-26T20:43:34.859Z,99928.16
2022-10-26T20:46:01.945Z,99926.62
2022-10-26T20:48:28.984Z,99925.46
2022-10-26T20:51:06.873Z,99926.73
2022-10-26T20:53:59.508Z,99925.15
2022-10-26T20:56:26.531Z,99918.87
2022-10-26T20:58:57.209Z,99919.11
2022-10-26T21:01:28.916Z,99916.29
2022-10-26T21:03:56.675Z,99916.71
2022-10-26T21:06:23.503Z,99917.55
2022-10-26T21:08:51.038Z,99921.64
2022-10-26T21:11:18.491Z,99923.44
2022-10-26T21:13:45.973Z,99924.59
2022-10-26T21:16:12.759Z,99925.33
2022-10-26T21:18:39.483Z,99928.13
2022-10-26T21:21:06.236Z,99926.77
2022-10-26T21:23:34.013Z,99928.81
2022-10-26T21:26:00.802Z,99930.40
2022-10-26T21:28:32.127Z,99927.33
2022-10-26T21:31:03.190Z,99928.29
2022-10-26T21:33:32.119Z,99932.77
2022-10-26T21:35:59.780Z,99938.32
2022-10-26T21:38:27.538Z,99939.55
2022-10-26T21:41:04.750Z,99943.08
2022-10-26T21:43:32.230Z,99945.37
2022-10-26T21:45:59.424Z,99941.38
2022-10-26T21:48:26.887Z,99944.92
2022-10-26T21:50:53.620Z,99942.99
2022-10-26T21:53:20.276Z,99942.30
2022-10-26T21:55:47.051Z,99944.59
2022-10-26T21:58:13.736Z,99948.08
2022-10-26T22:00:40.511Z,99952.83
2022-10-26T22:03:07.243Z,99949.30
2022-10-26T22:05:33.844Z,99950.36
2022-10-26T22:08:00.578Z,99951.31
2022-10-26T22:10:27.261Z,99951.27
2022-10-26T22:12:54.031Z,99952.98
2022-10-26T22:15:20.628Z,99961.41
2022-10-26T22:17:47.428Z,99962.08
2022-10-26T22:20:14.194Z,99962.38
2022-10-26T22:22:40.810Z,99965.95
2022-10-26T22:25:07.838Z,99972.07
2022-10-26T22:27:34.554Z,99973.92
2022-10-26T22:30:01.179Z,99972.98
2022-10-26T22:32:27.954Z,99977.88
2022-10-26T22:35:10.432Z,99979.60
2022-10-26T22:37:44.008Z,99976.81
2022-10-26T22:40:11.456Z,99980.54
2022-10-26T22:42:38.164Z,99980.69
2022-10-26T22:45:05.018Z,99979.59
2022-10-26T22:47:31.696Z,99976.27
2022-10-26T22:49:58.289Z,99973.89
2022-10-26T22:52:25.538Z,99974.30
2022-10-26T22:54:52.254Z,99976.95
2022-10-26T22:57:18.879Z,99977.06
2022-10-26T22:59:45.582Z,99978.97
2022-10-26T23:02:12.289Z,99973.63
2022-10-26T23:04:39.042Z,99979.58
2022-10-26T23:07:05.671Z,99976.54
2022-10-26T23:09:32.371Z,99975.20
2022-10-26T23:11:58.976Z,99975.25
2022-10-26T23:14:25.672Z,99982.55
2022-10-26T23:16:52.293Z,99985.86
2022-10-26T23:19:19.022Z,99983.08
2022-10-26T23:21:45.643Z,99983.83
2022-10-26T23:24:12.323Z,99987.35
2022-10-26T23:26:39.005Z,99989.83
2022-10-26T23:29:06.135Z,99988.73
2022-10-26T23:31:32.812Z,99992.69
2022-10-26T23:33:59.512Z,99993.16
2022-10-26T23:36:26.266Z,99991.59
2022-10-26T23:38:52.875Z,99999.66
2022-10-26T23:41:19.598Z,99999.56
2022-10-26T23:43:46.236Z,99999.53
2022-10-26T23:46:13.274Z,99998.45
2022-10-26T23:48:40.057Z,100002.99
2022-10-26T23:51:06.761Z,99999.15
2022-10-26T23:53:33.405Z,100004.47
2022-10-26T23:56:00.121Z,100008.06
2022-10-26T23:58:26.746Z,100011.42
